Flight Track Log - Related Links

Times and Time Zones

All times are in EST time to prevent confusion due to time zone crossing. See the SWA4450 flight status page for this flight to view local times or setup timezone preferences in your user account.

Time Position Orientation Groundspeed Altitude Reporting Facility
EST Latitude Longitude Course Direction KTS MPH feet Rate Location/Type
Fri 02:22:11 PM 28.5842 -81.2589 North 275 316 6,500  Level Jacksonville Center
Fri 02:23:11 PM 28.6614 -81.2767 349° North 288 331 10,100 3,150 Climbing Jacksonville Center
Fri 02:24:11 PM 28.7556 -81.2989 348° North 308 354 12,800 3,250 Climbing Jacksonville Center
Fri 02:25:00 PM 29.1851 -81.3872 354° North  Level FlightAware Approximate
Fri 02:25:11 PM 28.8542 -81.3256 347° North 339 390 16,600  Level Jacksonville Center
Fri 02:26:00 PM 29.3143 -81.4000 North  Level FlightAware Approximate
Fri 02:26:11 PM 28.9547 -81.3525 347° North 357 411 19,000  Level Jacksonville Center
Fri 02:27:00 PM 29.4429 -81.4167 North  Level FlightAware Approximate
Fri 02:27:11 PM 29.0636 -81.3817 347° North 391 450 21,700  Level Jacksonville Center
Fri 02:28:11 PM 29.1786 -81.3989 353° North 412 474 24,000 1,150 Climbing Jacksonville Center
Fri 02:29:11 PM 29.2750 -81.4333 343° North 404 465 24,000  Level Jacksonville Center
Fri 02:30:11 PM 29.3819 -81.4744 341° North 404 465 24,000  Level Jacksonville Center
Fri 02:31:11 PM 29.4867 -81.5208 339° North 404 465 24,000 1,900 Level Jacksonville Center
Fri 02:33:11 PM 29.6858 -81.6089 339° North 388 447 29,700 2,333 Climbing Jacksonville Center
Fri 02:34:11 PM 29.8067 -81.5881 North 398 458 31,000 1,300 Climbing Jacksonville Center
Fri 02:35:11 PM 29.9506 -81.5669 North 445 512 32,300 1,750 Climbing Jacksonville Center
Fri 02:36:11 PM 30.0800 -81.5483 North 464 534 34,500 1,950 Climbing Jacksonville Center
Fri 02:37:11 PM 30.2092 -81.5272 North 464 534 36,200 1,350 Climbing Jacksonville Center
Fri 02:38:11 PM 30.3364 -81.5086 North 464 534 37,200 1,050 Climbing Jacksonville Center
Fri 02:39:11 PM 30.4678 -81.4994 North 464 534 38,300 900 Climbing Jacksonville Center
Fri 02:40:11 PM 30.5992 -81.4881 North 464 534 39,000 350 Climbing Jacksonville Center
Fri 02:41:11 PM 30.7283 -81.4789 North 464 534 39,000  Level Jacksonville Center
Fri 02:42:11 PM 30.8578 -81.4697 North 464 534 39,000  Level Jacksonville Center
Fri 02:43:11 PM 30.9892 -81.4603 North 464 534 39,000  Level Jacksonville Center
Fri 02:44:11 PM 31.1228 -81.4486 North 464 534 39,000  Level Jacksonville Center
Fri 02:45:11 PM 31.2542 -81.4369 North 472 543 39,000  Level Jacksonville Center
Fri 02:46:11 PM 31.3853 -81.4008 13° North 482 555 39,000 500 Level Jacksonville Center
Fri 02:47:11 PM 31.5142 -81.3450 20° North 487 560 40,000 1,000 Climbing Jacksonville Center
Fri 02:48:11 PM 31.6261 -81.2822 26° Northeast 496 571 41,000 500 Climbing Jacksonville Center
Fri 02:49:11 PM 31.7669 -81.2042 25° Northeast 496 571 41,000  Level Jacksonville Center
Fri 02:50:11 PM 31.8933 -81.1308 26° Northeast 505 581 41,000  Level Jacksonville Center
Fri 02:51:11 PM 32.0197 -81.0547 27° Northeast 505 581 41,000  Level Jacksonville Center
Fri 02:52:11 PM 32.1522 -80.9858 24° Northeast 505 581 41,000  Level Jacksonville Center
Fri 02:53:11 PM 32.2825 -80.9144 25° Northeast 500 575 41,000  Level Jacksonville Center
Fri 02:54:11 PM 32.4089 -80.8428 26° Northeast 505 581 41,000  Level Jacksonville Center
Fri 02:55:11 PM 32.5247 -80.7761 26° Northeast 505 581 41,000  Level Jacksonville Center
Fri 02:56:11 PM 32.6508 -80.7042 26° Northeast 500 575 41,000  Level Jacksonville Center
Fri 02:57:11 PM 32.7789 -80.6319 25° Northeast 500 575 41,000  Level Jacksonville Center
Fri 02:58:11 PM 32.9050 -80.5594 26° Northeast 505 581 41,000  Level Jacksonville Center
Fri 02:59:11 PM 33.0331 -80.4892 25° Northeast 505 581 41,000  Level Jacksonville Center
Fri 03:00:11 PM 33.1756 -80.4083 25° Northeast 500 575 41,000  Level Jacksonville Center
Fri 03:01:11 PM 33.3056 -80.3328 26° Northeast 500 575 41,000  Level Jacksonville Center
Fri 03:02:11 PM 33.4292 -80.2569 27° Northeast 505 581 41,000  Level Jacksonville Center
Fri 03:03:11 PM 33.5569 -80.1808 26° Northeast 505 581 41,000  Level Jacksonville Center
Fri 03:04:11 PM 33.6825 -80.1097 25° Northeast 505 581 41,000  Level Jacksonville Center
Fri 03:05:11 PM 33.8081 -80.0333 27° Northeast 505 581 41,000  Level Jacksonville Center
Fri 03:06:54 PM 34.0144 -79.9133 26° Northeast 489 563 41,000  Level Washington Center
Fri 03:07:54 PM 34.1361 -79.8394 27° Northeast 494 568 41,000  Level Washington Center
Fri 03:08:52 PM 34.2533 -79.7650 28° Northeast 494 568 41,000  Level Washington Center
Fri 03:09:52 PM 34.3811 -79.6936 25° Northeast 499 574 41,000  Level Washington Center
Fri 03:10:53 PM 34.5028 -79.6089 30° Northeast 499 574 41,000  Level Washington Center
Fri 03:11:53 PM 34.6250 -79.5114 33° Northeast 509 586 41,000  Level Washington Center
Fri 03:12:54 PM 34.7450 -79.4136 34° Northeast 514 592 41,000  Level Washington Center
Fri 03:13:52 PM 34.8647 -79.3206 33° Northeast 514 592 41,000  Level Washington Center
Fri 03:14:53 PM 34.9869 -79.2197 34° Northeast 519 597 41,000  Level Washington Center
Fri 03:15:54 PM 35.1086 -79.1211 34° Northeast 519 597 41,000  Level Washington Center
Fri 03:16:52 PM 35.2283 -79.0247 33° Northeast 519 597 41,000  Level Washington Center
Fri 03:17:53 PM 35.3522 -78.9256 33° Northeast 524 603 41,000  Level Washington Center
Fri 03:18:54 PM 35.4739 -78.8286 33° Northeast 524 603 41,000  Level Washington Center
Fri 03:19:54 PM 35.6103 -78.7192 33° Northeast 524 603 41,000  Level Washington Center
Fri 03:20:52 PM 35.7339 -78.6139 35° Northeast 529 609 41,000  Level Washington Center
Fri 03:21:53 PM 35.8533 -78.5108 35° Northeast 529 609 41,000  Level Washington Center
Fri 03:22:53 PM 35.9769 -78.4103 33° Northeast 524 603 41,000  Level Washington Center
Fri 03:23:54 PM 36.0961 -78.3117 34° Northeast 524 603 41,000  Level Washington Center
Fri 03:24:54 PM 36.2194 -78.2078 34° Northeast 524 603 41,000  Level Washington Center
Fri 03:25:52 PM 36.3425 -78.1061 34° Northeast 524 603 41,000  Level Washington Center
Fri 03:26:53 PM 36.4614 -78.0014 35° Northeast 524 603 41,000  Level Washington Center
Fri 03:27:54 PM 36.5825 -77.8967 35° Northeast 524 603 41,000  Level Washington Center
Fri 03:28:54 PM 36.7075 -77.7914 34° Northeast 524 603 41,000  Level Washington Center
Fri 03:29:53 PM 36.8283 -77.6886 34° Northeast 524 603 41,000  Level Washington Center
Fri 03:30:53 PM 36.9489 -77.5853 34° Northeast 524 603 41,000  Level Washington Center
Fri 03:31:54 PM 37.0694 -77.4817 34° Northeast 524 603 41,000  Level Washington Center
Fri 03:32:52 PM 37.1900 -77.3750 35° Northeast 524 603 41,000  Level Washington Center
Fri 03:33:53 PM 37.3106 -77.2736 34° Northeast 524 603 41,000  Level Washington Center
Fri 03:34:54 PM 37.4331 -77.1636 35° Northeast 524 603 41,000  Level Washington Center
Fri 03:35:54 PM 37.5572 -77.0614 33° Northeast 534 615 41,000  Level Washington Center
Fri 03:36:52 PM 37.6753 -76.9536 36° Northeast 534 615 41,000  Level Washington Center
Fri 03:37:53 PM 37.7975 -76.8453 35° Northeast 528 608 41,000  Level Washington Center
Fri 03:38:54 PM 37.9153 -76.7394 35° Northeast 523 602 41,000  Level Washington Center
Fri 03:39:52 PM 38.0372 -76.6306 35° Northeast 523 602 41,000  Level Washington Center
Fri 03:40:52 PM 38.1569 -76.5239 35° Northeast 523 602 41,000  Level Washington Center
Fri 03:41:52 PM 38.2789 -76.4169 35° Northeast 523 602 41,000  Level Washington Center
Fri 03:42:53 PM 38.3858 -76.3200 35° Northeast 523 602 41,000  Level Washington Center
Fri 03:43:53 PM 38.5072 -76.2100 35° Northeast 523 602 41,000  Level Washington Center
Fri 03:44:54 PM 38.6350 -76.0992 34° Northeast 538 619 41,000  Level Washington Center
Fri 03:45:54 PM 38.7583 -75.9883 35° Northeast 543 625 41,000  Level Washington Center
Fri 03:46:53 PM 38.8817 -75.8742 36° Northeast 543 625 41,000  Level Washington Center
Fri 03:47:54 PM 39.0028 -75.7572 37° Northeast 543 625 41,000  Level Washington Center
Fri 03:48:54 PM 39.1114 -75.6022 48° Northeast 559 643 41,000  Level Washington Center
Fri 03:49:52 PM 39.2092 -75.4336 53° Northeast 570 656 41,000  Level Washington Center
Fri 03:50:53 PM 39.3067 -75.2617 54° Northeast 583 671 41,000  Level Washington Center
Fri 03:51:54 PM 39.4042 -75.0947 53° Northeast 583 671 41,000  Level Washington Center
Fri 03:52:54 PM 39.5011 -74.9244 54° Northeast 583 671 41,000  Level Washington Center
Fri 03:53:52 PM 39.5961 -74.7567 54° Northeast 583 671 41,000  Level Washington Center
Fri 03:54:53 PM 39.6925 -74.5831 54° Northeast 583 671 41,000 -393 Level Washington Center
Fri 03:55:54 PM 39.7972 -74.3950 54° Northeast 583 671 40,200 -853 Descending Washington Center
Fri 03:58:03 PM 39.9897 -74.0508 54° Northeast 587 676 38,300 -974 Descending Boston Center
Fri 03:59:05 PM 40.1033 -73.8419 55° Northeast 588 677 37,100 -1,024 Descending Boston Center
Fri 04:00:06 PM 40.1983 -73.6706 54° Northeast 585 673 36,200 -927 Descending Boston Center
Fri 04:01:08 PM 40.2761 -73.4847 61° Northeast 584 672 35,200 -1,220 Descending Boston Center
Fri 04:02:09 PM 40.3286 -73.3236 67° East 599 689 33,700 -1,854 Descending Boston Center
Fri 04:03:11 PM 40.4094 -73.0789 66° East 609 701 31,400 -2,390 Descending Boston Center
Fri 04:04:12 PM 40.4831 -72.8839 64° Northeast 598 688 28,800 -2,829 Descending Boston Center
Fri 04:05:14 PM 40.5794 -72.7225 52° Northeast 565 650 25,600 -2,878 Descending Boston Center
Fri 04:06:15 PM 40.6725 -72.5644 52° Northeast 550 633 22,900 -2,829 Descending Boston Center
Fri 04:07:17 PM 40.7761 -72.3908 52° Northeast 517 595 19,800 -2,839 Descending Boston Center
Fri 04:07:48 PM 40.8206 -72.3144 52° Northeast 504 580 18,500 -2,459 Descending Boston Center
Fri 04:08:18 PM 40.8658 -72.2369 52° Northeast 497 572 17,300 -2,512 Descending Boston Center
Fri 04:08:31 PM 40.8839 -72.2125 46° Northeast 496 571 16,700 -2,656 Descending Boston Center
Fri 04:09:19 PM 40.9447 -72.1042 53° Northeast 468 539 14,600 -2,600 Descending Boston Center
Fri 04:09:31 PM 40.9597 -72.0808 50° Northeast 448 516 14,100 -2,323 Descending Boston Center
Fri 04:10:21 PM 41.0189 -71.9775 53° Northeast 445 512 12,200 -2,557 Descending Boston Center
Fri 04:10:32 PM 41.0342 -71.9542 49° Northeast 428 493 11,500 -1,667 Descending Boston Center
Fri 04:11:33 PM 41.1050 -71.8344 52° Northeast 371 427 10,200 -989 Descending Boston Center
Fri 04:13:34 PM 41.2239 -71.6489 50° Northeast 319 367 8,500 -923 Descending Boston Center
Fri 04:14:35 PM 41.2792 -71.5603 50° Northeast 315 362 7,400 -1,091 Descending Boston Center
Fri 04:15:35 PM 41.3347 -71.4686 51° Northeast 316 364 6,300 -1,140 Descending Boston Center
Fri 04:16:36 PM 41.3942 -71.3900 45° Northeast 296 341 5,100 -639 Descending Boston Center
Fri 04:17:37 PM 41.4708 -71.3747 North 254 292 5,000 -49 Descending Boston Center
Fri 04:18:38 PM 41.5408 -71.3597 North 260 299 5,000  Level Boston Center
Fri 04:19:39 PM 41.6108 -71.3450 North 262 302 5,000 -545 Level Boston Center
Fri 04:20:39 PM 41.6808 -71.3300 North 254 292 3,900 -1,041 Descending Boston Center
Fri 04:21:40 PM 41.7483 -71.2853 26° Northeast 250 288 2,900 -984 Descending Boston Center
Fri 04:22:41 PM 41.7842 -71.3417 310° West 206 237 1,900 -843 Descending Boston Center
Fri 04:23:41 PM 41.7678 -71.3906 246° West 139 160 1,200 -843 Descending Boston Center
Fri 04:24:42 PM 41.7367 -71.4167 212° Southwest 128 147 200 -984 Descending Boston Center

Login

Don't have an account? Register now (free) for customized features, flight alerts, and more!